sensor_id;sensor_type;location;lat;lon;timestamp;pressure;altitude;pressure_sealevel;temperature;humidity
75072;BME280;63651;55.728;38.022;2023-05-10T00:04:22;100523.22;;;17.29;34.22
75072;BME280;63651;55.728;38.022;2023-05-10T00:09:23;100518.34;;;17.31;33.92
75072;BME280;63651;55.728;38.022;2023-05-10T00:14:24;100526.19;;;17.27;34.03
75072;BME280;63651;55.728;38.022;2023-05-10T00:19:25;100529.16;;;17.26;33.73
75072;BME280;63651;55.728;38.022;2023-05-10T00:24:26;100527.69;;;17.23;33.36
75072;BME280;63651;55.728;38.022;2023-05-10T00:29:27;100532.75;;;17.26;33.59
75072;BME280;63651;55.728;38.022;2023-05-10T00:34:29;100525.97;;;17.29;33.25
75072;BME280;63651;55.728;38.022;2023-05-10T00:39:30;100528.09;;;17.27;33.00
75072;BME280;63651;55.728;38.022;2023-05-10T00:44:31;100517.94;;;17.27;33.09
75072;BME280;63651;55.728;38.022;2023-05-10T00:49:32;100525.78;;;17.24;32.67
75072;BME280;63651;55.728;38.022;2023-05-10T00:54:33;100526.41;;;17.26;32.74
75072;BME280;63651;55.728;38.022;2023-05-10T00:59:34;100531.06;;;17.25;32.48
75072;BME280;63651;55.728;38.022;2023-05-10T01:04:36;100526.41;;;17.26;32.32
75072;BME280;63651;55.728;38.022;2023-05-10T01:09:37;100523.44;;;17.27;32.47
75072;BME280;63651;55.728;38.022;2023-05-10T01:14:39;100526.81;;;17.30;32.70
75072;BME280;63651;55.728;38.022;2023-05-10T01:19:40;100525.97;;;17.29;32.28
75072;BME280;63651;55.728;38.022;2023-05-10T01:25:08;100521.09;;;17.31;32.32
75072;BME280;63651;55.728;38.022;2023-05-10T01:35:34;100522.59;;;17.27;32.10
75072;BME280;63651;55.728;38.022;2023-05-10T01:46:18;100508.88;;;17.27;32.13
75072;BME280;63651;55.728;38.022;2023-05-10T01:51:29;100516.19;;;17.33;32.51
75072;BME280;63651;55.728;38.022;2023-05-10T01:56:33;100521.09;;;17.31;32.24
75072;BME280;63651;55.728;38.022;2023-05-10T02:01:36;100515.97;;;17.35;32.31
75072;BME280;63651;55.728;38.022;2023-05-10T02:06:39;100503.31;;;17.34;32.34
75072;BME280;63651;55.728;38.022;2023-05-10T02:11:43;100507.50;;;17.36;31.81
75072;BME280;63651;55.728;38.022;2023-05-10T02:16:45;100508.75;;;17.40;31.88
75072;BME280;63651;55.728;38.022;2023-05-10T02:21:47;100514.84;;;17.42;31.25
75072;BME280;63651;55.728;38.022;2023-05-10T02:26:51;100510.19;;;17.43;31.47
75072;BME280;63651;55.728;38.022;2023-05-10T02:31:55;100502.63;;;17.38;31.20
75072;BME280;63651;55.728;38.022;2023-05-10T02:36:59;100499.44;;;17.41;31.10
75072;BME280;63651;55.728;38.022;2023-05-10T02:42:00;100499.81;;;17.45;31.26
75072;BME280;63651;55.728;38.022;2023-05-10T02:47:03;100496.63;;;17.48;31.20
75072;BME280;63651;55.728;38.022;2023-05-10T02:52:05;100498.06;;;17.50;31.40
75072;BME280;63651;55.728;38.022;2023-05-10T02:57:14;100499.53;;;17.53;31.09
75072;BME280;63651;55.728;38.022;2023-05-10T03:02:16;100495.72;;;17.54;31.35
75072;BME280;63651;55.728;38.022;2023-05-10T03:07:18;100500.50;;;17.58;30.62
75072;BME280;63651;55.728;38.022;2023-05-10T03:13:24;100493.50;;;17.63;30.84
75072;BME280;63651;55.728;38.022;2023-05-10T03:18:09;100494.09;;;17.65;31.01
75072;BME280;63651;55.728;38.022;2023-05-10T03:23:24;100491.53;;;17.70;30.44
75072;BME280;63651;55.728;38.022;2023-05-10T03:28:27;100487.50;;;17.72;30.93
75072;BME280;63651;55.728;38.022;2023-05-10T03:33:28;100493.00;;;17.72;30.87
75072;BME280;63651;55.728;38.022;2023-05-10T03:38:29;100491.63;;;17.81;30.54
75072;BME280;63651;55.728;38.022;2023-05-10T03:43:31;100495.22;;;17.82;30.48
75072;BME280;63651;55.728;38.022;2023-05-10T03:48:51;100484.97;;;17.89;30.21
75072;BME280;63651;55.728;38.022;2023-05-10T03:53:52;100494.06;;;17.89;30.44
75072;BME280;63651;55.728;38.022;2023-05-10T03:58:53;100492.91;;;17.97;30.22
75072;BME280;63651;55.728;38.022;2023-05-10T04:03:54;100490.53;;;18.01;30.39
75072;BME280;63651;55.728;38.022;2023-05-10T04:08:55;100498.94;;;18.06;30.39
75072;BME280;63651;55.728;38.022;2023-05-10T04:13:56;100488.91;;;18.11;30.05
75072;BME280;63651;55.728;38.022;2023-05-10T04:18:57;100489.91;;;18.17;31.10
75072;BME280;63651;55.728;38.022;2023-05-10T04:23:58;100488.06;;;18.29;31.23
75072;BME280;63651;55.728;38.022;2023-05-10T04:28:59;100489.88;;;18.35;31.03
75072;BME280;63651;55.728;38.022;2023-05-10T04:34:00;100474.88;;;18.49;31.53
75072;BME280;63651;55.728;38.022;2023-05-10T04:39:02;100469.84;;;18.58;31.84
75072;BME280;63651;55.728;38.022;2023-05-10T04:44:04;100474.81;;;18.68;32.41
75072;BME280;63651;55.728;38.022;2023-05-10T04:49:05;100470.28;;;18.73;32.22
75072;BME280;63651;55.728;38.022;2023-05-10T04:54:06;100461.47;;;19.41;31.63
75072;BME280;63651;55.728;38.022;2023-05-10T04:59:07;100462.44;;;20.10;30.57
75072;BME280;63651;55.728;38.022;2023-05-10T05:04:08;100456.06;;;20.38;30.20
75072;BME280;63651;55.728;38.022;2023-05-10T05:09:09;100455.25;;;20.09;29.08
75072;BME280;63651;55.728;38.022;2023-05-10T05:14:10;100454.34;;;19.92;29.30
75072;BME280;63651;55.728;38.022;2023-05-10T05:19:11;100457.09;;;19.92;29.56
75072;BME280;63651;55.728;38.022;2023-05-10T05:24:12;100446.31;;;19.91;29.55
75072;BME280;63651;55.728;38.022;2023-05-10T05:29:14;100446.56;;;19.89;29.37
75072;BME280;63651;55.728;38.022;2023-05-10T05:34:15;100444.25;;;19.98;29.11
75072;BME280;63651;55.728;38.022;2023-05-10T05:39:16;100438.34;;;20.06;29.14
75072;BME280;63651;55.728;38.022;2023-05-10T05:44:17;100442.28;;;20.10;27.94
75072;BME280;63651;55.728;38.022;2023-05-10T05:49:18;100438.09;;;20.07;26.85
75072;BME280;63651;55.728;38.022;2023-05-10T05:54:19;100439.03;;;20.13;26.25
75072;BME280;63651;55.728;38.022;2023-05-10T05:59:20;100433.16;;;20.09;26.07
75072;BME280;63651;55.728;38.022;2023-05-10T06:04:21;100428.75;;;20.08;25.24
75072;BME280;63651;55.728;38.022;2023-05-10T06:09:22;100422.63;;;20.06;25.33
75072;BME280;63651;55.728;38.022;2023-05-10T06:14:25;100429.91;;;20.12;25.66
75072;BME280;63651;55.728;38.022;2023-05-10T06:19:26;100421.31;;;20.09;25.49
75072;BME280;63651;55.728;38.022;2023-05-10T06:24:28;100422.69;;;20.23;25.89
75072;BME280;63651;55.728;38.022;2023-05-10T06:29:29;100434.97;;;20.32;26.30
75072;BME280;63651;55.728;38.022;2023-05-10T06:34:30;100420.81;;;20.40;25.96
75072;BME280;63651;55.728;38.022;2023-05-10T06:39:31;100417.97;;;20.52;23.73
75072;BME280;63651;55.728;38.022;2023-05-10T06:44:32;100419.75;;;20.58;23.98
75072;BME280;63651;55.728;38.022;2023-05-10T06:49:33;100410.22;;;20.66;23.28
75072;BME280;63651;55.728;38.022;2023-05-10T06:54:34;100412.81;;;20.72;23.58
75072;BME280;63651;55.728;38.022;2023-05-10T06:59:35;100411.31;;;20.82;22.94
75072;BME280;63651;55.728;38.022;2023-05-10T07:04:37;100412.75;;;20.84;23.86
75072;BME280;63651;55.728;38.022;2023-05-10T07:09:38;100407.63;;;20.93;23.80
75072;BME280;63651;55.728;38.022;2023-05-10T07:14:39;100407.03;;;21.07;22.22
75072;BME280;63651;55.728;38.022;2023-05-10T07:19:40;100402.69;;;21.12;21.92
75072;BME280;63651;55.728;38.022;2023-05-10T07:24:41;100401.06;;;21.16;22.64
75072;BME280;63651;55.728;38.022;2023-05-10T07:29:43;100396.81;;;21.25;22.36
75072;BME280;63651;55.728;38.022;2023-05-10T07:34:44;100394.38;;;21.28;22.55
75072;BME280;63651;55.728;38.022;2023-05-10T07:39:45;100388.59;;;21.30;22.91
75072;BME280;63651;55.728;38.022;2023-05-10T07:44:46;100390.53;;;21.29;23.31
75072;BME280;63651;55.728;38.022;2023-05-10T07:49:47;100382.56;;;21.33;23.24
75072;BME280;63651;55.728;38.022;2023-05-10T07:54:48;100380.56;;;21.28;23.12
75072;BME280;63651;55.728;38.022;2023-05-10T07:59:49;100383.91;;;21.14;23.24
75072;BME280;63651;55.728;38.022;2023-05-10T08:04:50;100386.63;;;20.92;23.33
75072;BME280;63651;55.728;38.022;2023-05-10T08:09:52;100386.56;;;20.87;22.87
75072;BME280;63651;55.728;38.022;2023-05-10T08:14:53;100378.78;;;20.84;23.88
75072;BME280;63651;55.728;38.022;2023-05-10T08:19:54;100371.22;;;20.79;24.47
75072;BME280;63651;55.728;38.022;2023-05-10T08:24:55;100362.19;;;20.84;24.00
75072;BME280;63651;55.728;38.022;2023-05-10T08:29:56;100355.09;;;20.88;24.03
75072;BME280;63651;55.728;38.022;2023-05-10T08:34:57;100350.78;;;20.97;24.20
75072;BME280;63651;55.728;38.022;2023-05-10T08:39:58;100349.34;;;21.11;23.78
75072;BME280;63651;55.728;38.022;2023-05-10T08:44:59;100344.38;;;21.30;23.90
75072;BME280;63651;55.728;38.022;2023-05-10T08:50:02;100341.22;;;21.43;23.48
75072;BME280;63651;55.728;38.022;2023-05-10T08:55:03;100340.44;;;21.48;23.40
75072;BME280;63651;55.728;38.022;2023-05-10T09:00:05;100338.25;;;21.50;22.98
75072;BME280;63651;55.728;38.022;2023-05-10T09:05:07;100333.38;;;21.57;23.39
75072;BME280;63651;55.728;38.022;2023-05-10T09:10:10;100330.09;;;21.60;22.30
75072;BME280;63651;55.728;38.022;2023-05-10T09:15:15;100313.97;;;21.79;22.67
75072;BME280;63651;55.728;38.022;2023-05-10T09:20:16;100310.97;;;21.80;22.52
75072;BME280;63651;55.728;38.022;2023-05-10T09:25:18;100305.69;;;21.79;23.20
75072;BME280;63651;55.728;38.022;2023-05-10T09:30:26;100312.63;;;21.81;22.57
75072;BME280;63651;55.728;38.022;2023-05-10T09:35:29;100304.94;;;21.88;21.80
75072;BME280;63651;55.728;38.022;2023-05-10T09:40:31;100303.91;;;21.94;21.94
75072;BME280;63651;55.728;38.022;2023-05-10T09:45:35;100297.59;;;21.99;21.16
75072;BME280;63651;55.728;38.022;2023-05-10T09:50:36;100292.13;;;22.04;21.80
75072;BME280;63651;55.728;38.022;2023-05-10T09:55:43;100280.88;;;22.11;21.72
75072;BME280;63651;55.728;38.022;2023-05-10T10:00:47;100285.09;;;22.18;21.78
75072;BME280;63651;55.728;38.022;2023-05-10T10:05:51;100273.53;;;22.26;21.59
75072;BME280;63651;55.728;38.022;2023-05-10T10:10:54;100264.41;;;22.26;21.87
75072;BME280;63651;55.728;38.022;2023-05-10T10:15:55;100251.44;;;22.31;21.33
75072;BME280;63651;55.728;38.022;2023-05-10T10:20:56;100244.81;;;22.38;21.66
75072;BME280;63651;55.728;38.022;2023-05-10T10:25:57;100237.72;;;22.52;21.73
75072;BME280;63651;55.728;38.022;2023-05-10T10:31:11;100238.28;;;22.54;21.53
75072;BME280;63651;55.728;38.022;2023-05-10T10:36:15;100242.78;;;22.65;22.00
75072;BME280;63651;55.728;38.022;2023-05-10T10:52:31;100242.50;;;22.61;21.65
75072;BME280;63651;55.728;38.022;2023-05-10T11:02:44;100225.81;;;22.51;20.87
75072;BME280;63651;55.728;38.022;2023-05-10T11:07:56;100226.69;;;22.57;21.08
75072;BME280;63651;55.728;38.022;2023-05-10T11:18:20;100213.47;;;22.74;20.83
75072;BME280;63651;55.728;38.022;2023-05-10T11:23:30;100212.06;;;22.66;20.46
75072;BME280;63651;55.728;38.022;2023-05-10T11:28:31;100203.19;;;22.64;21.10
75072;BME280;63651;55.728;38.022;2023-05-10T11:33:51;100207.38;;;22.72;20.96
75072;BME280;63651;55.728;38.022;2023-05-10T11:38:53;100196.53;;;22.65;20.21
75072;BME280;63651;55.728;38.022;2023-05-10T11:43:56;100192.38;;;22.63;20.82
75072;BME280;63651;55.728;38.022;2023-05-10T11:49:00;100193.19;;;22.58;20.57
75072;BME280;63651;55.728;38.022;2023-05-10T11:54:06;100188.75;;;22.57;20.62
75072;BME280;63651;55.728;38.022;2023-05-10T11:59:14;100184.28;;;22.51;20.02
75072;BME280;63651;55.728;38.022;2023-05-10T12:04:15;100180.66;;;22.46;20.13
75072;BME280;63651;55.728;38.022;2023-05-10T12:09:16;100173.72;;;22.43;21.09
75072;BME280;63651;55.728;38.022;2023-05-10T12:14:18;100174.81;;;22.42;20.91
75072;BME280;63651;55.728;38.022;2023-05-10T12:19:20;100173.13;;;22.36;20.80
75072;BME280;63651;55.728;38.022;2023-05-10T12:24:21;100167.28;;;22.32;19.93
75072;BME280;63651;55.728;38.022;2023-05-10T12:29:22;100157.31;;;22.31;20.80
75072;BME280;63651;55.728;38.022;2023-05-10T12:34:29;100162.03;;;22.36;21.08
75072;BME280;63651;55.728;38.022;2023-05-10T12:39:44;100163.72;;;22.37;20.70
75072;BME280;63651;55.728;38.022;2023-05-10T12:44:45;100154.28;;;22.33;21.35
75072;BME280;63651;55.728;38.022;2023-05-10T12:49:46;100159.28;;;22.36;21.08
75072;BME280;63651;55.728;38.022;2023-05-10T12:54:47;100159.00;;;22.38;21.27
75072;BME280;63651;55.728;38.022;2023-05-10T12:59:48;100155.09;;;22.33;20.64
75072;BME280;63651;55.728;38.022;2023-05-10T13:04:50;100154.53;;;22.31;20.50
75072;BME280;63651;55.728;38.022;2023-05-10T13:09:51;100152.03;;;22.30;20.34
75072;BME280;63651;55.728;38.022;2023-05-10T13:14:52;100146.22;;;22.26;20.76
75072;BME280;63651;55.728;38.022;2023-05-10T13:19:53;100144.88;;;22.34;20.70
75072;BME280;63651;55.728;38.022;2023-05-10T13:24:54;100148.19;;;22.36;20.88
75072;BME280;63651;55.728;38.022;2023-05-10T13:29:55;100141.56;;;22.37;20.47
75072;BME280;63651;55.728;38.022;2023-05-10T13:34:56;100141.81;;;22.30;19.73
75072;BME280;63651;55.728;38.022;2023-05-10T13:39:57;100149.69;;;21.21;17.72
75072;BME280;63651;55.728;38.022;2023-05-10T13:44:58;100149.06;;;19.93;18.24
75072;BME280;63651;55.728;38.022;2023-05-10T13:49:59;100142.91;;;19.40;19.21
75072;BME280;63651;55.728;38.022;2023-05-10T13:55:01;100138.72;;;19.83;19.78
75072;BME280;63651;55.728;38.022;2023-05-10T14:00:02;100144.72;;;20.52;20.18
75072;BME280;63651;55.728;38.022;2023-05-10T14:05:04;100139.03;;;20.81;20.44
75072;BME280;63651;55.728;38.022;2023-05-10T14:10:05;100135.88;;;20.94;20.68
75072;BME280;63651;55.728;38.022;2023-05-10T14:15:08;100138.78;;;21.09;20.99
75072;BME280;63651;55.728;38.022;2023-05-10T14:20:11;100132.78;;;21.17;21.60
75072;BME280;63651;55.728;38.022;2023-05-10T14:25:13;100125.16;;;21.24;21.37
75072;BME280;63651;55.728;38.022;2023-05-10T14:30:15;100125.53;;;21.33;21.58
75072;BME280;63651;55.728;38.022;2023-05-10T14:35:16;100129.69;;;21.35;21.54
75072;BME280;63651;55.728;38.022;2023-05-10T14:40:17;100125.00;;;21.36;22.05
75072;BME280;63651;55.728;38.022;2023-05-10T14:45:18;100121.72;;;21.39;22.04
75072;BME280;63651;55.728;38.022;2023-05-10T14:50:21;100111.69;;;21.65;28.95
75072;BME280;63651;55.728;38.022;2023-05-10T14:55:22;100115.44;;;21.22;29.25
75072;BME280;63651;55.728;38.022;2023-05-10T15:00:23;100108.91;;;21.06;30.39
75072;BME280;63651;55.728;38.022;2023-05-10T15:05:24;100106.88;;;20.96;31.57
75072;BME280;63651;55.728;38.022;2023-05-10T15:10:25;100106.47;;;20.83;33.31
75072;BME280;63651;55.728;38.022;2023-05-10T15:15:30;100102.19;;;20.75;33.25
75072;BME280;63651;55.728;38.022;2023-05-10T15:20:31;100105.94;;;20.64;34.50
75072;BME280;63651;55.728;38.022;2023-05-10T15:25:32;100112.16;;;20.54;34.12
75072;BME280;63651;55.728;38.022;2023-05-10T15:30:37;100105.19;;;20.47;34.39
75072;BME280;63651;55.728;38.022;2023-05-10T15:35:39;100104.78;;;20.60;33.50
75072;BME280;63651;55.728;38.022;2023-05-10T15:40:40;100101.66;;;20.51;35.08
75072;BME280;63651;55.728;38.022;2023-05-10T15:45:41;100098.31;;;20.49;35.43
75072;BME280;63651;55.728;38.022;2023-05-10T15:50:42;100088.03;;;20.44;34.54
75072;BME280;63651;55.728;38.022;2023-05-10T15:55:43;100095.41;;;20.39;35.93
75072;BME280;63651;55.728;38.022;2023-05-10T16:00:44;100098.34;;;20.32;34.34
75072;BME280;63651;55.728;38.022;2023-05-10T16:05:45;100093.06;;;20.31;35.33
75072;BME280;63651;55.728;38.022;2023-05-10T16:10:46;100097.44;;;20.27;34.11
75072;BME280;63651;55.728;38.022;2023-05-10T16:15:47;100094.59;;;20.22;34.68
75072;BME280;63651;55.728;38.022;2023-05-10T16:20:49;100095.44;;;20.22;33.38
75072;BME280;63651;55.728;38.022;2023-05-10T16:25:50;100101.22;;;20.21;33.61
75072;BME280;63651;55.728;38.022;2023-05-10T16:30:51;100090.50;;;20.24;33.40
75072;BME280;63651;55.728;38.022;2023-05-10T16:35:52;100098.34;;;20.32;32.86
75072;BME280;63651;55.728;38.022;2023-05-10T16:40:53;100094.94;;;20.25;32.80
75072;BME280;63651;55.728;38.022;2023-05-10T16:45:57;100092.25;;;20.30;31.93
75072;BME280;63651;55.728;38.022;2023-05-10T16:50:58;100100.25;;;20.32;30.98
75072;BME280;63651;55.728;38.022;2023-05-10T16:56:00;100098.34;;;20.32;30.60
75072;BME280;63651;55.728;38.022;2023-05-10T17:01:01;100094.75;;;20.32;29.88
75072;BME280;63651;55.728;38.022;2023-05-10T17:06:04;100091.47;;;20.35;29.64
75072;BME280;63651;55.728;38.022;2023-05-10T17:11:07;100098.34;;;20.32;29.29
75072;BME280;63651;55.728;38.022;2023-05-10T17:16:08;100099.16;;;20.33;28.83
75072;BME280;63651;55.728;38.022;2023-05-10T17:21:09;100103.84;;;20.32;28.89
75072;BME280;63651;55.728;38.022;2023-05-10T17:26:10;100104.19;;;20.36;28.93
75072;BME280;63651;55.728;38.022;2023-05-10T17:31:11;100108.03;;;20.35;29.35
75072;BME280;63651;55.728;38.022;2023-05-10T17:36:13;100108.84;;;20.35;29.22
75072;BME280;63651;55.728;38.022;2023-05-10T17:41:32;100118.66;;;20.43;29.10
75072;BME280;63651;55.728;38.022;2023-05-10T17:46:34;100119.91;;;20.35;29.30
75072;BME280;63651;55.728;38.022;2023-05-10T17:51:35;100121.31;;;20.38;29.34
75072;BME280;63651;55.728;38.022;2023-05-10T17:56:36;100119.66;;;20.37;29.30
75072;BME280;63651;55.728;38.022;2023-05-10T18:01:55;100122.16;;;20.38;28.64
75072;BME280;63651;55.728;38.022;2023-05-10T18:06:56;100123.16;;;20.32;28.93
75072;BME280;63651;55.728;38.022;2023-05-10T18:12:01;100128.09;;;20.30;28.21
75072;BME280;63651;55.728;38.022;2023-05-10T18:17:02;100127.09;;;20.36;28.35
75072;BME280;63651;55.728;38.022;2023-05-10T18:22:03;100124.50;;;20.30;28.37
75072;BME280;63651;55.728;38.022;2023-05-10T18:27:05;100122.84;;;20.29;28.04
75072;BME280;63651;55.728;38.022;2023-05-10T18:32:06;100126.38;;;20.24;27.97
75072;BME280;63651;55.728;38.022;2023-05-10T18:37:08;100126.13;;;20.26;28.07
75072;BME280;63651;55.728;38.022;2023-05-10T18:42:09;100120.91;;;20.29;28.11
75072;BME280;63651;55.728;38.022;2023-05-10T18:47:10;100122.78;;;20.24;28.32
75072;BME280;63651;55.728;38.022;2023-05-10T18:52:11;100125.47;;;20.19;28.09
75072;BME280;63651;55.728;38.022;2023-05-10T18:57:13;100123.09;;;20.27;28.41
75072;BME280;63651;55.728;38.022;2023-05-10T19:02:14;100130.09;;;20.35;28.58
75072;BME280;63651;55.728;38.022;2023-05-10T19:07:15;100131.97;;;20.29;28.96
75072;BME280;63651;55.728;38.022;2023-05-10T19:12:16;100141.72;;;20.37;29.15
75072;BME280;63651;55.728;38.022;2023-05-10T19:17:17;100136.63;;;20.29;29.13
75072;BME280;63651;55.728;38.022;2023-05-10T19:22:18;100131.38;;;20.27;29.31
75072;BME280;63651;55.728;38.022;2023-05-10T19:27:20;100139.41;;;20.29;29.14
75072;BME280;63651;55.728;38.022;2023-05-10T19:32:21;100141.56;;;20.27;29.06
75072;BME280;63651;55.728;38.022;2023-05-10T19:37:22;100140.75;;;20.26;29.13
75072;BME280;63651;55.728;38.022;2023-05-10T19:42:23;100137.66;;;20.23;28.97
75072;BME280;63651;55.728;38.022;2023-05-10T19:47:24;100131.06;;;20.24;28.90
75072;BME280;63651;55.728;38.022;2023-05-10T19:52:25;100139.59;;;20.22;29.03
75072;BME280;63651;55.728;38.022;2023-05-10T19:57:26;100137.84;;;20.16;29.07
75072;BME280;63651;55.728;38.022;2023-05-10T20:02:27;100134.00;;;20.17;29.16
75072;BME280;63651;55.728;38.022;2023-05-10T20:07:28;100140.94;;;20.20;29.39
75072;BME280;63651;55.728;38.022;2023-05-10T20:12:30;100136.75;;;20.17;29.59
75072;BME280;63651;55.728;38.022;2023-05-10T20:17:31;100138.50;;;20.23;29.53
75072;BME280;63651;55.728;38.022;2023-05-10T20:22:32;100142.41;;;20.27;29.52
75072;BME280;63651;55.728;38.022;2023-05-10T20:27:33;100137.41;;;20.24;29.55
75072;BME280;63651;55.728;38.022;2023-05-10T20:32:34;100135.66;;;20.18;29.52
75072;BME280;63651;55.728;38.022;2023-05-10T20:37:35;100140.84;;;20.14;29.58
75072;BME280;63651;55.728;38.022;2023-05-10T20:42:37;100138.09;;;20.14;29.59
75072;BME280;63651;55.728;38.022;2023-05-10T20:47:38;100136.50;;;20.19;29.37
75072;BME280;63651;55.728;38.022;2023-05-10T20:52:39;100137.78;;;20.11;29.56
75072;BME280;63651;55.728;38.022;2023-05-10T20:57:40;100139.38;;;20.07;29.39
75072;BME280;63651;55.728;38.022;2023-05-10T21:02:44;100134.94;;;20.06;29.23
75072;BME280;63651;55.728;38.022;2023-05-10T21:07:45;100137.13;;;20.04;29.40
75072;BME280;63651;55.728;38.022;2023-05-10T21:12:46;100137.25;;;20.14;29.10
75072;BME280;63651;55.728;38.022;2023-05-10T21:17:47;100139.38;;;20.07;29.24
75072;BME280;63651;55.728;38.022;2023-05-10T21:22:48;100137.94;;;20.04;28.91
75072;BME280;63651;55.728;38.022;2023-05-10T21:27:49;100137.88;;;19.99;29.19
75072;BME280;63651;55.728;38.022;2023-05-10T21:32:51;100137.94;;;20.04;28.84
75072;BME280;63651;55.728;38.022;2023-05-10T21:37:53;100128.75;;;19.99;28.82
75072;BME280;63651;55.728;38.022;2023-05-10T21:42:54;100142.47;;;19.94;29.26
75072;BME280;63651;55.728;38.022;2023-05-10T21:47:55;100128.50;;;20.00;29.24
75072;BME280;63651;55.728;38.022;2023-05-10T21:52:56;100125.75;;;20.00;28.93
75072;BME280;63651;55.728;38.022;2023-05-10T21:57:57;100134.28;;;19.99;29.04
75072;BME280;63651;55.728;38.022;2023-05-10T22:02:58;100137.03;;;19.99;28.85
75072;BME280;63651;55.728;38.022;2023-05-10T22:07:59;100143.72;;;20.03;28.76
75072;BME280;63651;55.728;38.022;2023-05-10T22:13:00;100131.78;;;19.97;28.76
75072;BME280;63651;55.728;38.022;2023-05-10T22:18:01;100144.81;;;20.02;28.80
75072;BME280;63651;55.728;38.022;2023-05-10T22:23:02;100132.44;;;20.04;28.80
75072;BME280;63651;55.728;38.022;2023-05-10T22:28:03;100131.84;;;20.02;28.60
75072;BME280;63651;55.728;38.022;2023-05-10T22:33:04;100132.94;;;20.01;28.35
75072;BME280;63651;55.728;38.022;2023-05-10T22:38:06;100127.69;;;20.00;28.21
75072;BME280;63651;55.728;38.022;2023-05-10T22:43:07;100121.66;;;20.03;28.21
75072;BME280;63651;55.728;38.022;2023-05-10T22:48:08;100124.09;;;19.99;28.31
75072;BME280;63651;55.728;38.022;2023-05-10T22:53:09;100120.56;;;20.04;27.97
75072;BME280;63651;55.728;38.022;2023-05-10T22:58:10;100128.69;;;19.94;27.94
75072;BME280;63651;55.728;38.022;2023-05-10T23:03:11;100116.56;;;19.95;27.69
75072;BME280;63651;55.728;38.022;2023-05-10T23:08:13;100123.44;;;19.92;27.46
75072;BME280;63651;55.728;38.022;2023-05-10T23:13:14;100124.66;;;20.01;27.11
75072;BME280;63651;55.728;38.022;2023-05-10T23:18:15;100127.78;;;19.88;27.10
75072;BME280;63651;55.728;38.022;2023-05-10T23:23:16;100121.66;;;20.03;26.86
75072;BME280;63651;55.728;38.022;2023-05-10T23:28:17;100127.09;;;19.98;26.43
75072;BME280;63651;55.728;38.022;2023-05-10T23:33:19;100123.75;;;19.96;26.73
75072;BME280;63651;55.728;38.022;2023-05-10T23:38:20;100125.09;;;19.93;26.60
75072;BME280;63651;55.728;38.022;2023-05-10T23:43:21;100123.69;;;19.91;26.48
75072;BME280;63651;55.728;38.022;2023-05-10T23:48:23;100122.16;;;20.00;26.14
75072;BME280;63651;55.728;38.022;2023-05-10T23:53:24;100131.13;;;19.90;26.22
75072;BME280;63651;55.728;38.022;2023-05-10T23:58:25;100128.84;;;19.87;26.43
